sensor_id;sensor_type;location;lat;lon;timestamp;pressure;altitude;pressure_sealevel;temperature
49785;BMP280;35679;38.732;-121.358;2024-01-16T00:02:38;101596.34;;;15.29
49785;BMP280;35679;38.732;-121.358;2024-01-16T00:05:28;101586.69;;;15.28
49785;BMP280;35679;38.732;-121.358;2024-01-16T00:08:17;101591.22;;;15.27
49785;BMP280;35679;38.732;-121.358;2024-01-16T00:11:06;101586.88;;;15.26
49785;BMP280;35679;38.732;-121.358;2024-01-16T00:13:55;101582.41;;;15.27
49785;BMP280;35679;38.732;-121.358;2024-01-16T00:16:45;101580.75;;;15.26
49785;BMP280;35679;38.732;-121.358;2024-01-16T00:19:35;101582.41;;;15.27
49785;BMP280;35679;38.732;-121.358;2024-01-16T00:22:24;101577.91;;;15.27
49785;BMP280;35679;38.732;-121.358;2024-01-16T00:25:13;101579.56;;;15.28
49785;BMP280;35679;38.732;-121.358;2024-01-16T00:28:02;101584.72;;;15.30
49785;BMP280;35679;38.732;-121.358;2024-01-16T00:30:51;101582.34;;;15.35
49785;BMP280;35679;38.732;-121.358;2024-01-16T00:33:40;101576.84;;;15.36
49785;BMP280;35679;38.732;-121.358;2024-01-16T00:36:29;101579.69;;;15.35
49785;BMP280;35679;38.732;-121.358;2024-01-16T00:39:19;101587.00;;;15.33
49785;BMP280;35679;38.732;-121.358;2024-01-16T00:42:08;101588.03;;;15.32
49785;BMP280;35679;38.732;-121.358;2024-01-16T00:44:57;101592.50;;;15.31
49785;BMP280;35679;38.732;-121.358;2024-01-16T00:47:47;101599.66;;;15.31
49785;BMP280;35679;38.732;-121.358;2024-01-16T00:50:36;101600.66;;;15.30
49785;BMP280;35679;38.732;-121.358;2024-01-16T00:53:28;101599.00;;;15.29
49785;BMP280;35679;38.732;-121.358;2024-01-16T00:56:17;101603.31;;;15.30
49785;BMP280;35679;38.732;-121.358;2024-01-16T00:59:06;101601.47;;;15.30
49785;BMP280;35679;38.732;-121.358;2024-01-16T01:01:56;101610.63;;;15.28
49785;BMP280;35679;38.732;-121.358;2024-01-16T01:04:45;101609.63;;;15.29
49785;BMP280;35679;38.732;-121.358;2024-01-16T01:07:34;101607.81;;;15.29
49785;BMP280;35679;38.732;-121.358;2024-01-16T01:10:23;101610.31;;;15.31
49785;BMP280;35679;38.732;-121.358;2024-01-16T01:13:12;101613.97;;;15.30
49785;BMP280;35679;38.732;-121.358;2024-01-16T01:16:02;101607.97;;;15.28
49785;BMP280;35679;38.732;-121.358;2024-01-16T01:18:51;101611.47;;;15.28
49785;BMP280;35679;38.732;-121.358;2024-01-16T01:21:41;101606.16;;;15.28
49785;BMP280;35679;38.732;-121.358;2024-01-16T01:24:30;101606.97;;;15.29
49785;BMP280;35679;38.732;-121.358;2024-01-16T01:27:19;101604.50;;;15.27
49785;BMP280;35679;38.732;-121.358;2024-01-16T01:30:08;101598.50;;;15.25
49785;BMP280;35679;38.732;-121.358;2024-01-16T01:33:00;101599.38;;;15.26
49785;BMP280;35679;38.732;-121.358;2024-01-16T01:35:49;101598.69;;;15.24
49785;BMP280;35679;38.732;-121.358;2024-01-16T01:38:38;101595.38;;;15.22
49785;BMP280;35679;38.732;-121.358;2024-01-16T01:41:28;101599.88;;;15.21
49785;BMP280;35679;38.732;-121.358;2024-01-16T01:44:17;101598.19;;;15.20
49785;BMP280;35679;38.732;-121.358;2024-01-16T01:47:07;101595.72;;;15.19
49785;BMP280;35679;38.732;-121.358;2024-01-16T01:49:57;101603.88;;;15.17
49785;BMP280;35679;38.732;-121.358;2024-01-16T01:52:46;101608.34;;;15.17
49785;BMP280;35679;38.732;-121.358;2024-01-16T01:55:36;101596.88;;;15.16
49785;BMP280;35679;38.732;-121.358;2024-01-16T01:58:25;101598.88;;;15.14
49785;BMP280;35679;38.732;-121.358;2024-01-16T02:01:16;101597.25;;;15.13
49785;BMP280;35679;38.732;-121.358;2024-01-16T02:04:06;101609.69;;;15.13
49785;BMP280;35679;38.732;-121.358;2024-01-16T02:06:58;101606.22;;;15.12
49785;BMP280;35679;38.732;-121.358;2024-01-16T02:09:48;101606.22;;;15.12
49785;BMP280;35679;38.732;-121.358;2024-01-16T02:12:37;101607.22;;;15.11
49785;BMP280;35679;38.732;-121.358;2024-01-16T02:15:27;101614.38;;;15.11
49785;BMP280;35679;38.732;-121.358;2024-01-16T02:18:16;101611.06;;;15.09
49785;BMP280;35679;38.732;-121.358;2024-01-16T02:21:06;101626.19;;;15.08
49785;BMP280;35679;38.732;-121.358;2024-01-16T02:23:55;101629.84;;;15.07
49785;BMP280;35679;38.732;-121.358;2024-01-16T02:26:44;101620.38;;;15.05
49785;BMP280;35679;38.732;-121.358;2024-01-16T02:29:34;101629.19;;;15.06
49785;BMP280;35679;38.732;-121.358;2024-01-16T02:32:29;101627.69;;;15.03
49785;BMP280;35679;38.732;-121.358;2024-01-16T02:35:18;101626.03;;;15.02
49785;BMP280;35679;38.732;-121.358;2024-01-16T02:38:09;101623.38;;;15.02
49785;BMP280;35679;38.732;-121.358;2024-01-16T02:40:58;101628.06;;;15.00
49785;BMP280;35679;38.732;-121.358;2024-01-16T02:43:47;101629.88;;;15.00
49785;BMP280;35679;38.732;-121.358;2024-01-16T02:46:37;101631.88;;;14.98
49785;BMP280;35679;38.732;-121.358;2024-01-16T02:49:27;101631.03;;;14.97
49785;BMP280;35679;38.732;-121.358;2024-01-16T02:52:17;101637.53;;;14.95
49785;BMP280;35679;38.732;-121.358;2024-01-16T02:55:07;101636.72;;;14.94
49785;BMP280;35679;38.732;-121.358;2024-01-16T02:57:56;101645.69;;;14.93
49785;BMP280;35679;38.732;-121.358;2024-01-16T03:00:46;101647.53;;;14.93
49785;BMP280;35679;38.732;-121.358;2024-01-16T03:03:35;101652.00;;;14.92
49785;BMP280;35679;38.732;-121.358;2024-01-16T03:06:25;101653.00;;;14.91
49785;BMP280;35679;38.732;-121.358;2024-01-16T03:09:15;101652.34;;;14.89
49785;BMP280;35679;38.732;-121.358;2024-01-16T03:12:05;101650.69;;;14.88
49785;BMP280;35679;38.732;-121.358;2024-01-16T03:14:54;101653.53;;;14.87
49785;BMP280;35679;38.732;-121.358;2024-01-16T03:17:43;101650.38;;;14.83
49785;BMP280;35679;38.732;-121.358;2024-01-16T03:20:33;101654.03;;;14.82
49785;BMP280;35679;38.732;-121.358;2024-01-16T03:23:22;101657.69;;;14.81
49785;BMP280;35679;38.732;-121.358;2024-01-16T03:26:13;101660.34;;;14.81
49785;BMP280;35679;38.732;-121.358;2024-01-16T03:29:02;101664.34;;;14.85
49785;BMP280;35679;38.732;-121.358;2024-01-16T03:31:52;101659.16;;;14.84
49785;BMP280;35679;38.732;-121.358;2024-01-16T03:34:41;101667.81;;;14.86
49785;BMP280;35679;38.732;-121.358;2024-01-16T03:37:31;101668.97;;;14.83
49785;BMP280;35679;38.732;-121.358;2024-01-16T03:40:20;101668.97;;;14.83
49785;BMP280;35679;38.732;-121.358;2024-01-16T03:43:09;101671.13;;;14.80
49785;BMP280;35679;38.732;-121.358;2024-01-16T03:45:58;101672.31;;;14.77
49785;BMP280;35679;38.732;-121.358;2024-01-16T03:48:48;101668.00;;;14.76
49785;BMP280;35679;38.732;-121.358;2024-01-16T03:51:38;101669.00;;;14.75
49785;BMP280;35679;38.732;-121.358;2024-01-16T03:54:27;101673.47;;;14.75
49785;BMP280;35679;38.732;-121.358;2024-01-16T03:57:16;101668.34;;;14.73
49785;BMP280;35679;38.732;-121.358;2024-01-16T04:00:06;101672.81;;;14.73
49785;BMP280;35679;38.732;-121.358;2024-01-16T04:02:55;101677.31;;;14.72
49785;BMP280;35679;38.732;-121.358;2024-01-16T04:05:45;101680.16;;;14.71
49785;BMP280;35679;38.732;-121.358;2024-01-16T04:08:34;101686.63;;;14.68
49785;BMP280;35679;38.732;-121.358;2024-01-16T04:11:24;101681.50;;;14.67
49785;BMP280;35679;38.732;-121.358;2024-01-16T04:14:13;101686.94;;;14.65
49785;BMP280;35679;38.732;-121.358;2024-01-16T04:17:03;101689.59;;;14.65
49785;BMP280;35679;38.732;-121.358;2024-01-16T04:19:52;101693.28;;;14.64
49785;BMP280;35679;38.732;-121.358;2024-01-16T04:22:42;101687.97;;;14.64
49785;BMP280;35679;38.732;-121.358;2024-01-16T04:25:31;101686.50;;;14.62
49785;BMP280;35679;38.732;-121.358;2024-01-16T04:28:20;101690.13;;;14.61
49785;BMP280;35679;38.732;-121.358;2024-01-16T04:31:10;101683.34;;;14.58
49785;BMP280;35679;38.732;-121.358;2024-01-16T04:34:00;101682.66;;;14.56
49785;BMP280;35679;38.732;-121.358;2024-01-16T04:36:50;101677.53;;;14.55
49785;BMP280;35679;38.732;-121.358;2024-01-16T04:39:39;101667.91;;;14.54
49785;BMP280;35679;38.732;-121.358;2024-01-16T04:42:28;101678.50;;;14.54
49785;BMP280;35679;38.732;-121.358;2024-01-16T04:45:18;101676.03;;;14.52
49785;BMP280;35679;38.732;-121.358;2024-01-16T04:48:07;101677.84;;;14.52
49785;BMP280;35679;38.732;-121.358;2024-01-16T04:50:59;101679.69;;;14.51
49785;BMP280;35679;38.732;-121.358;2024-01-16T04:53:48;101670.91;;;14.51
49785;BMP280;35679;38.732;-121.358;2024-01-16T04:56:38;101679.00;;;14.49
49785;BMP280;35679;38.732;-121.358;2024-01-16T04:59:28;101685.34;;;14.48
49785;BMP280;35679;38.732;-121.358;2024-01-16T05:02:20;101677.53;;;14.47
49785;BMP280;35679;38.732;-121.358;2024-01-16T05:05:10;101680.19;;;14.47
49785;BMP280;35679;38.732;-121.358;2024-01-16T05:08:02;101683.00;;;14.45
49785;BMP280;35679;38.732;-121.358;2024-01-16T05:10:51;101689.31;;;14.44
49785;BMP280;35679;38.732;-121.358;2024-01-16T05:13:41;101687.50;;;14.45
49785;BMP280;35679;38.732;-121.358;2024-01-16T05:16:30;101686.84;;;14.43
49785;BMP280;35679;38.732;-121.358;2024-01-16T05:19:19;101683.19;;;14.44
49785;BMP280;35679;38.732;-121.358;2024-01-16T05:22:10;101687.00;;;14.42
49785;BMP280;35679;38.732;-121.358;2024-01-16T05:24:59;101694.16;;;14.41
49785;BMP280;35679;38.732;-121.358;2024-01-16T05:27:49;101692.31;;;14.42
49785;BMP280;35679;38.732;-121.358;2024-01-16T05:30:39;101693.31;;;14.41
49785;BMP280;35679;38.732;-121.358;2024-01-16T05:33:28;101703.94;;;14.41
49785;BMP280;35679;38.732;-121.358;2024-01-16T05:36:17;101705.94;;;14.39
49785;BMP280;35679;38.732;-121.358;2024-01-16T05:39:06;101704.91;;;14.40
49785;BMP280;35679;38.732;-121.358;2024-01-16T05:41:56;101702.63;;;14.37
49785;BMP280;35679;38.732;-121.358;2024-01-16T05:44:46;101713.25;;;14.37
49785;BMP280;35679;38.732;-121.358;2024-01-16T05:47:35;101711.56;;;14.36
49785;BMP280;35679;38.732;-121.358;2024-01-16T05:50:24;101711.56;;;14.36
49785;BMP280;35679;38.732;-121.358;2024-01-16T05:53:14;101714.22;;;14.36
49785;BMP280;35679;38.732;-121.358;2024-01-16T05:56:03;101711.75;;;14.34
49785;BMP280;35679;38.732;-121.358;2024-01-16T05:58:52;101726.84;;;14.34
49785;BMP280;35679;38.732;-121.358;2024-01-16T06:01:41;101721.88;;;14.31
49785;BMP280;35679;38.732;-121.358;2024-01-16T06:04:30;101725.34;;;14.31
49785;BMP280;35679;38.732;-121.358;2024-01-16T06:07:19;101717.53;;;14.30
49785;BMP280;35679;38.732;-121.358;2024-01-16T06:10:11;101728.34;;;14.28
49785;BMP280;35679;38.732;-121.358;2024-01-16T06:13:00;101721.19;;;14.29
49785;BMP280;35679;38.732;-121.358;2024-01-16T06:15:49;101729.31;;;14.27
49785;BMP280;35679;38.732;-121.358;2024-01-16T06:18:38;101728.50;;;14.27
49785;BMP280;35679;38.732;-121.358;2024-01-16T06:21:27;101731.34;;;14.25
49785;BMP280;35679;38.732;-121.358;2024-01-16T06:24:17;101739.44;;;14.24
49785;BMP280;35679;38.732;-121.358;2024-01-16T06:27:06;101736.97;;;14.22
49785;BMP280;35679;38.732;-121.358;2024-01-16T06:29:55;101730.84;;;14.22
49785;BMP280;35679;38.732;-121.358;2024-01-16T06:32:44;101732.81;;;14.20
49785;BMP280;35679;38.732;-121.358;2024-01-16T06:35:33;101736.47;;;14.19
49785;BMP280;35679;38.732;-121.358;2024-01-16T06:38:23;101741.75;;;14.19
49785;BMP280;35679;38.732;-121.358;2024-01-16T06:41:13;101725.84;;;14.19
49785;BMP280;35679;38.732;-121.358;2024-01-16T06:44:01;101732.31;;;14.16
49785;BMP280;35679;38.732;-121.358;2024-01-16T06:46:51;101735.13;;;14.15
49785;BMP280;35679;38.732;-121.358;2024-01-16T06:49:40;101736.97;;;14.14
49785;BMP280;35679;38.732;-121.358;2024-01-16T06:52:29;101742.28;;;14.14
49785;BMP280;35679;38.732;-121.358;2024-01-16T06:55:18;101741.44;;;14.14
49785;BMP280;35679;38.732;-121.358;2024-01-16T06:58:08;101737.16;;;14.13
49785;BMP280;35679;38.732;-121.358;2024-01-16T07:00:58;101745.09;;;14.13
49785;BMP280;35679;38.732;-121.358;2024-01-16T07:03:48;101743.28;;;14.13
49785;BMP280;35679;38.732;-121.358;2024-01-16T07:06:38;101743.44;;;14.12
49785;BMP280;35679;38.732;-121.358;2024-01-16T07:09:27;101739.13;;;14.11
49785;BMP280;35679;38.732;-121.358;2024-01-16T07:12:16;101744.44;;;14.11
49785;BMP280;35679;38.732;-121.358;2024-01-16T07:15:05;101737.47;;;14.10
49785;BMP280;35679;38.732;-121.358;2024-01-16T07:17:54;101737.47;;;14.10
49785;BMP280;35679;38.732;-121.358;2024-01-16T07:20:43;101740.09;;;14.10
49785;BMP280;35679;38.732;-121.358;2024-01-16T07:23:34;101735.78;;;14.09
49785;BMP280;35679;38.732;-121.358;2024-01-16T07:26:23;101732.47;;;14.07
49785;BMP280;35679;38.732;-121.358;2024-01-16T07:29:13;101726.31;;;14.06
49785;BMP280;35679;38.732;-121.358;2024-01-16T07:32:02;101726.47;;;14.05
49785;BMP280;35679;38.732;-121.358;2024-01-16T07:34:51;101720.19;;;14.06
49785;BMP280;35679;38.732;-121.358;2024-01-16T07:37:41;101716.69;;;14.05
49785;BMP280;35679;38.732;-121.358;2024-01-16T07:40:30;101720.34;;;14.04
49785;BMP280;35679;38.732;-121.358;2024-01-16T07:43:19;101715.19;;;14.03
49785;BMP280;35679;38.732;-121.358;2024-01-16T07:46:09;101716.84;;;14.04
49785;BMP280;35679;38.732;-121.358;2024-01-16T07:48:59;101721.34;;;14.03
49785;BMP280;35679;38.732;-121.358;2024-01-16T07:51:48;101717.84;;;14.03
49785;BMP280;35679;38.732;-121.358;2024-01-16T07:54:37;101719.69;;;14.02
49785;BMP280;35679;38.732;-121.358;2024-01-16T07:57:26;101711.72;;;14.02
49785;BMP280;35679;38.732;-121.358;2024-01-16T08:00:15;101708.25;;;14.02
49785;BMP280;35679;38.732;-121.358;2024-01-16T08:03:06;101702.09;;;14.01
49785;BMP280;35679;38.732;-121.358;2024-01-16T08:05:56;101700.28;;;14.02
49785;BMP280;35679;38.732;-121.358;2024-01-16T08:08:45;101702.94;;;14.02
49785;BMP280;35679;38.732;-121.358;2024-01-16T08:11:34;101708.38;;;14.00
49785;BMP280;35679;38.732;-121.358;2024-01-16T08:14:25;101705.72;;;14.00
49785;BMP280;35679;38.732;-121.358;2024-01-16T08:17:14;101709.53;;;13.98
49785;BMP280;35679;38.732;-121.358;2024-01-16T08:20:03;101712.19;;;13.98
49785;BMP280;35679;38.732;-121.358;2024-01-16T08:22:53;101706.06;;;13.97
49785;BMP280;35679;38.732;-121.358;2024-01-16T08:25:42;101702.25;;;14.00
49785;BMP280;35679;38.732;-121.358;2024-01-16T08:28:31;101701.59;;;13.98
49785;BMP280;35679;38.732;-121.358;2024-01-16T08:31:20;101705.25;;;13.97
49785;BMP280;35679;38.732;-121.358;2024-01-16T08:34:09;101712.53;;;13.95
49785;BMP280;35679;38.732;-121.358;2024-01-16T08:36:58;101708.72;;;13.97
49785;BMP280;35679;38.732;-121.358;2024-01-16T08:39:47;101709.72;;;13.96
49785;BMP280;35679;38.732;-121.358;2024-01-16T08:42:36;101707.22;;;13.95
49785;BMP280;35679;38.732;-121.358;2024-01-16T08:45:25;101712.53;;;13.95
49785;BMP280;35679;38.732;-121.358;2024-01-16T08:48:14;101711.72;;;13.94
49785;BMP280;35679;38.732;-121.358;2024-01-16T08:51:06;101711.56;;;13.96
49785;BMP280;35679;38.732;-121.358;2024-01-16T08:53:56;101709.72;;;13.96
49785;BMP280;35679;38.732;-121.358;2024-01-16T08:56:45;101715.19;;;13.95
49785;BMP280;35679;38.732;-121.358;2024-01-16T08:59:34;101718.66;;;13.95
49785;BMP280;35679;38.732;-121.358;2024-01-16T09:02:23;101716.34;;;13.92
49785;BMP280;35679;38.732;-121.358;2024-01-16T09:05:12;101721.47;;;13.94
49785;BMP280;35679;38.732;-121.358;2024-01-16T09:08:03;101716.84;;;13.96
49785;BMP280;35679;38.732;-121.358;2024-01-16T09:10:56;101709.88;;;13.95
49785;BMP280;35679;38.732;-121.358;2024-01-16T09:13:45;101704.75;;;13.93
49785;BMP280;35679;38.732;-121.358;2024-01-16T09:16:34;101709.22;;;13.93
49785;BMP280;35679;38.732;-121.358;2024-01-16T09:19:23;101709.22;;;13.93
49785;BMP280;35679;38.732;-121.358;2024-01-16T09:22:14;101705.91;;;13.91
49785;BMP280;35679;38.732;-121.358;2024-01-16T09:25:04;101714.50;;;13.93
49785;BMP280;35679;38.732;-121.358;2024-01-16T09:27:53;101718.84;;;13.94
49785;BMP280;35679;38.732;-121.358;2024-01-16T09:30:43;101706.56;;;13.93
49785;BMP280;35679;38.732;-121.358;2024-01-16T09:33:33;101703.91;;;13.93
49785;BMP280;35679;38.732;-121.358;2024-01-16T09:36:22;101714.50;;;13.93
49785;BMP280;35679;38.732;-121.358;2024-01-16T09:39:11;101708.56;;;13.91
49785;BMP280;35679;38.732;-121.358;2024-01-16T09:42:05;101708.56;;;13.91
49785;BMP280;35679;38.732;-121.358;2024-01-16T09:44:54;101710.22;;;13.92
49785;BMP280;35679;38.732;-121.358;2024-01-16T09:47:44;101716.53;;;13.91
49785;BMP280;35679;38.732;-121.358;2024-01-16T09:50:34;101712.22;;;13.90
49785;BMP280;35679;38.732;-121.358;2024-01-16T09:53:23;101708.88;;;13.88
49785;BMP280;35679;38.732;-121.358;2024-01-16T09:56:16;101716.53;;;13.91
49785;BMP280;35679;38.732;-121.358;2024-01-16T09:59:06;101715.66;;;13.90
49785;BMP280;35679;38.732;-121.358;2024-01-16T10:01:55;101707.88;;;13.89
49785;BMP280;35679;38.732;-121.358;2024-01-16T10:04:44;101707.56;;;13.92
49785;BMP280;35679;38.732;-121.358;2024-01-16T10:07:33;101711.38;;;13.89
49785;BMP280;35679;38.732;-121.358;2024-01-16T10:10:23;101724.47;;;13.91
49785;BMP280;35679;38.732;-121.358;2024-01-16T10:13:25;101715.66;;;13.90
49785;BMP280;35679;38.732;-121.358;2024-01-16T10:16:15;101714.84;;;13.90
49785;BMP280;35679;38.732;-121.358;2024-01-16T10:19:04;101699.75;;;13.90
49785;BMP280;35679;38.732;-121.358;2024-01-16T10:22:00;101703.09;;;13.92
49785;BMP280;35679;38.732;-121.358;2024-01-16T10:24:49;101694.44;;;13.90
49785;BMP280;35679;38.732;-121.358;2024-01-16T10:27:39;101704.25;;;13.90
49785;BMP280;35679;38.732;-121.358;2024-01-16T10:30:29;101701.25;;;13.93
49785;BMP280;35679;38.732;-121.358;2024-01-16T10:33:19;101703.25;;;13.91
49785;BMP280;35679;38.732;-121.358;2024-01-16T10:39:02;101702.56;;;13.89
49785;BMP280;35679;38.732;-121.358;2024-01-16T10:41:58;101681.19;;;13.90
49785;BMP280;35679;38.732;-121.358;2024-01-16T10:44:53;101686.66;;;13.89
49785;BMP280;35679;38.732;-121.358;2024-01-16T10:47:44;101695.31;;;13.91
49785;BMP280;35679;38.732;-121.358;2024-01-16T10:50:35;101690.00;;;13.91
49785;BMP280;35679;38.732;-121.358;2024-01-16T10:53:25;101683.69;;;13.92
49785;BMP280;35679;38.732;-121.358;2024-01-16T10:56:15;101685.66;;;13.90
49785;BMP280;35679;38.732;-121.358;2024-01-16T11:01:56;101690.31;;;13.88
49785;BMP280;35679;38.732;-121.358;2024-01-16T11:04:45;101681.34;;;13.89
49785;BMP280;35679;38.732;-121.358;2024-01-16T11:07:35;101678.69;;;13.89
49785;BMP280;35679;38.732;-121.358;2024-01-16T11:10:25;101683.03;;;13.90
49785;BMP280;35679;38.732;-121.358;2024-01-16T11:13:14;101670.75;;;13.89
49785;BMP280;35679;38.732;-121.358;2024-01-16T11:16:04;101672.41;;;13.90
49785;BMP280;35679;38.732;-121.358;2024-01-16T11:18:55;101669.75;;;13.90
49785;BMP280;35679;38.732;-121.358;2024-01-16T11:22:00;101667.91;;;13.90
49785;BMP280;35679;38.732;-121.358;2024-01-16T11:25:08;101675.06;;;13.90
49785;BMP280;35679;38.732;-121.358;2024-01-16T11:28:11;101673.09;;;13.92
49785;BMP280;35679;38.732;-121.358;2024-01-16T11:31:03;101663.47;;;13.91
49785;BMP280;35679;38.732;-121.358;2024-01-16T11:34:09;101655.50;;;13.91
49785;BMP280;35679;38.732;-121.358;2024-01-16T11:36:58;101652.00;;;13.90
49785;BMP280;35679;38.732;-121.358;2024-01-16T11:39:49;101647.72;;;13.89
49785;BMP280;35679;38.732;-121.358;2024-01-16T11:42:37;101653.84;;;13.90
49785;BMP280;35679;38.732;-121.358;2024-01-16T11:48:21;101654.00;;;13.88
49785;BMP280;35679;38.732;-121.358;2024-01-16T11:51:29;101647.53;;;13.91
49785;BMP280;35679;38.732;-121.358;2024-01-16T11:54:20;101656.50;;;13.90
49785;BMP280;35679;38.732;-121.358;2024-01-16T11:57:16;101647.84;;;13.88
49785;BMP280;35679;38.732;-121.358;2024-01-16T12:00:20;101649.53;;;13.89
49785;BMP280;35679;38.732;-121.358;2024-01-16T12:03:10;101650.38;;;13.89
49785;BMP280;35679;38.732;-121.358;2024-01-16T12:06:00;101645.06;;;13.89
49785;BMP280;35679;38.732;-121.358;2024-01-16T12:08:51;101640.75;;;13.88
49785;BMP280;35679;38.732;-121.358;2024-01-16T12:11:41;101644.22;;;13.89
49785;BMP280;35679;38.732;-121.358;2024-01-16T12:14:39;101640.56;;;13.90
49785;BMP280;35679;38.732;-121.358;2024-01-16T12:17:28;101639.59;;;13.91
49785;BMP280;35679;38.732;-121.358;2024-01-16T12:20:18;101636.94;;;13.91
49785;BMP280;35679;38.732;-121.358;2024-01-16T12:23:07;101633.44;;;13.90
49785;BMP280;35679;38.732;-121.358;2024-01-16T12:25:58;101633.28;;;13.92
49785;BMP280;35679;38.732;-121.358;2024-01-16T12:28:52;101630.63;;;13.92
49785;BMP280;35679;38.732;-121.358;2024-01-16T12:31:45;101633.28;;;13.92
49785;BMP280;35679;38.732;-121.358;2024-01-16T12:34:34;101636.06;;;13.90
49785;BMP280;35679;38.732;-121.358;2024-01-16T12:37:23;101645.88;;;13.90
49785;BMP280;35679;38.732;-121.358;2024-01-16T12:40:12;101638.91;;;13.89
49785;BMP280;35679;38.732;-121.358;2024-01-16T12:43:03;101645.53;;;13.93
49785;BMP280;35679;38.732;-121.358;2024-01-16T12:45:56;101636.06;;;13.90
49785;BMP280;35679;38.732;-121.358;2024-01-16T12:48:45;101634.09;;;13.92
49785;BMP280;35679;38.732;-121.358;2024-01-16T12:51:46;101649.22;;;13.92
49785;BMP280;35679;38.732;-121.358;2024-01-16T12:54:35;101629.63;;;13.93
49785;BMP280;35679;38.732;-121.358;2024-01-16T12:57:24;101623.50;;;13.92
49785;BMP280;35679;38.732;-121.358;2024-01-16T13:00:25;101620.84;;;13.92
49785;BMP280;35679;38.732;-121.358;2024-01-16T13:03:17;101611.03;;;13.93
49785;BMP280;35679;38.732;-121.358;2024-01-16T13:06:07;101615.72;;;13.91
49785;BMP280;35679;38.732;-121.358;2024-01-16T13:09:04;101620.84;;;13.92
49785;BMP280;35679;38.732;-121.358;2024-01-16T13:11:58;101618.19;;;13.92
49785;BMP280;35679;38.732;-121.358;2024-01-16T13:14:48;101612.88;;;13.92
49785;BMP280;35679;38.732;-121.358;2024-01-16T13:17:37;101622.69;;;13.92
49785;BMP280;35679;38.732;-121.358;2024-01-16T13:20:27;101618.19;;;13.92
49785;BMP280;35679;38.732;-121.358;2024-01-16T13:23:16;101617.38;;;13.92
49785;BMP280;35679;38.732;-121.358;2024-01-16T13:26:05;101611.22;;;13.91
49785;BMP280;35679;38.732;-121.358;2024-01-16T13:28:55;101601.44;;;13.92
49785;BMP280;35679;38.732;-121.358;2024-01-16T13:31:44;101604.09;;;13.92
49785;BMP280;35679;38.732;-121.358;2024-01-16T13:34:33;101613.69;;;13.93
49785;BMP280;35679;38.732;-121.358;2024-01-16T13:37:22;101622.00;;;13.90
49785;BMP280;35679;38.732;-121.358;2024-01-16T13:40:12;101624.31;;;13.93
49785;BMP280;35679;38.732;-121.358;2024-01-16T13:43:04;101622.50;;;13.93
49785;BMP280;35679;38.732;-121.358;2024-01-16T13:45:54;101622.31;;;13.95
49785;BMP280;35679;38.732;-121.358;2024-01-16T13:48:43;101630.47;;;13.93
49785;BMP280;35679;38.732;-121.358;2024-01-16T13:51:34;101623.31;;;13.94
49785;BMP280;35679;38.732;-121.358;2024-01-16T13:54:23;101615.34;;;13.94
49785;BMP280;35679;38.732;-121.358;2024-01-16T13:57:12;101615.34;;;13.94
49785;BMP280;35679;38.732;-121.358;2024-01-16T14:00:05;101604.75;;;13.94
49785;BMP280;35679;38.732;-121.358;2024-01-16T14:02:57;101599.63;;;13.92
49785;BMP280;35679;38.732;-121.358;2024-01-16T14:05:47;101594.31;;;13.92
49785;BMP280;35679;38.732;-121.358;2024-01-16T14:08:36;101594.47;;;13.91
49785;BMP280;35679;38.732;-121.358;2024-01-16T14:11:26;101599.63;;;13.92
49785;BMP280;35679;38.732;-121.358;2024-01-16T14:14:14;101597.13;;;13.91
49785;BMP280;35679;38.732;-121.358;2024-01-16T14:17:04;101610.22;;;13.92
49785;BMP280;35679;38.732;-121.358;2024-01-16T14:19:53;101613.69;;;13.93
49785;BMP280;35679;38.732;-121.358;2024-01-16T14:22:42;101622.50;;;13.93
49785;BMP280;35679;38.732;-121.358;2024-01-16T14:25:31;101631.28;;;13.94
49785;BMP280;35679;38.732;-121.358;2024-01-16T14:28:21;101627.63;;;13.95
49785;BMP280;35679;38.732;-121.358;2024-01-16T14:31:16;101624.16;;;13.94
49785;BMP280;35679;38.732;-121.358;2024-01-16T14:34:05;101623.16;;;13.95
49785;BMP280;35679;38.732;-121.358;2024-01-16T14:36:54;101622.31;;;13.95
49785;BMP280;35679;38.732;-121.358;2024-01-16T14:39:43;101630.97;;;13.97
49785;BMP280;35679;38.732;-121.358;2024-01-16T14:42:32;101624.16;;;13.94
49785;BMP280;35679;38.732;-121.358;2024-01-16T14:45:23;101631.94;;;13.96
49785;BMP280;35679;38.732;-121.358;2024-01-16T14:48:12;101629.31;;;13.96
49785;BMP280;35679;38.732;-121.358;2024-01-16T14:51:02;101631.94;;;13.96
49785;BMP280;35679;38.732;-121.358;2024-01-16T14:53:51;101641.56;;;13.97
49785;BMP280;35679;38.732;-121.358;2024-01-16T14:56:40;101636.28;;;13.97
49785;BMP280;35679;38.732;-121.358;2024-01-16T14:59:29;101641.56;;;13.97
49785;BMP280;35679;38.732;-121.358;2024-01-16T15:02:19;101636.09;;;13.98
49785;BMP280;35679;38.732;-121.358;2024-01-16T15:05:09;101640.56;;;13.98
49785;BMP280;35679;38.732;-121.358;2024-01-16T15:08:01;101642.38;;;13.97
49785;BMP280;35679;38.732;-121.358;2024-01-16T15:10:50;101627.28;;;13.98
49785;BMP280;35679;38.732;-121.358;2024-01-16T15:13:39;101633.63;;;13.97
49785;BMP280;35679;38.732;-121.358;2024-01-16T15:16:28;101630.97;;;13.97
49785;BMP280;35679;38.732;-121.358;2024-01-16T15:19:18;101629.31;;;13.96
49785;BMP280;35679;38.732;-121.358;2024-01-16T15:22:07;101627.47;;;13.96
49785;BMP280;35679;38.732;-121.358;2024-01-16T15:24:56;101636.28;;;13.97
49785;BMP280;35679;38.732;-121.358;2024-01-16T15:27:45;101634.59;;;13.96
49785;BMP280;35679;38.732;-121.358;2024-01-16T15:30:34;101624.81;;;13.96
49785;BMP280;35679;38.732;-121.358;2024-01-16T15:33:24;101629.31;;;13.96
49785;BMP280;35679;38.732;-121.358;2024-01-16T15:36:13;101630.97;;;13.97